createdAt,value
2023-03-29T00:00:01.913Z,15.53
2023-03-29T00:01:02.090Z,15.59
2023-03-29T00:02:01.958Z,15.53
2023-03-29T00:03:01.957Z,15.56
2023-03-29T00:04:02.842Z,15.53
2023-03-29T00:05:02.014Z,15.55
2023-03-29T00:06:01.876Z,15.56
2023-03-29T00:07:01.869Z,15.55
2023-03-29T00:08:01.929Z,15.59
2023-03-29T00:09:01.951Z,15.59
2023-03-29T00:10:01.861Z,15.58
2023-03-29T00:11:01.937Z,15.51
2023-03-29T00:12:01.884Z,15.56
2023-03-29T00:13:01.825Z,15.56
2023-03-29T00:14:01.837Z,15.56
2023-03-29T00:15:01.811Z,15.53
2023-03-29T00:16:01.792Z,15.59
2023-03-29T00:17:01.822Z,15.57
2023-03-29T00:18:01.807Z,15.57
2023-03-29T00:19:01.765Z,15.57
2023-03-29T00:20:01.769Z,15.59
2023-03-29T00:21:02.068Z,15.55
2023-03-29T00:22:01.766Z,15.55
2023-03-29T00:23:01.737Z,15.53
2023-03-29T00:24:01.727Z,15.56
2023-03-29T00:25:01.743Z,15.51
2023-03-29T00:26:01.723Z,15.56
2023-03-29T00:27:01.735Z,15.57
2023-03-29T00:28:01.713Z,15.51
2023-03-29T00:29:01.709Z,15.53
2023-03-29T00:30:01.688Z,15.55
2023-03-29T00:31:01.919Z,15.51
2023-03-29T00:32:01.686Z,15.51
2023-03-29T00:33:01.702Z,15.48
2023-03-29T00:34:01.669Z,15.51
2023-03-29T00:35:01.682Z,15.42
2023-03-29T00:36:01.743Z,15.45
2023-03-29T00:37:01.737Z,15.48
2023-03-29T00:38:01.761Z,15.50
2023-03-29T00:39:01.821Z,15.42
2023-03-29T00:40:01.813Z,15.46
2023-03-29T00:41:01.991Z,15.47
2023-03-29T00:42:01.867Z,15.46
2023-03-29T00:43:01.851Z,15.48
2023-03-29T00:44:01.875Z,15.50
2023-03-29T00:45:01.880Z,15.53
2023-03-29T00:46:01.956Z,15.57
2023-03-29T00:47:01.949Z,15.57
2023-03-29T00:48:01.998Z,15.65
2023-03-29T00:49:01.983Z,15.67
2023-03-29T00:50:02.002Z,15.62
2023-03-29T00:51:02.284Z,15.64
2023-03-29T00:52:02.033Z,15.69
2023-03-29T00:53:02.044Z,15.70
2023-03-29T00:54:02.061Z,15.69
2023-03-29T00:55:02.132Z,15.67
2023-03-29T00:56:02.164Z,15.70
2023-03-29T00:57:02.341Z,15.69
2023-03-29T00:58:02.221Z,15.73
2023-03-29T00:59:02.256Z,15.75
2023-03-29T01:00:02.262Z,15.73
2023-03-29T01:01:02.594Z,15.77
2023-03-29T01:02:02.380Z,15.72
2023-03-29T01:03:02.432Z,15.70
2023-03-29T01:04:02.460Z,15.73
2023-03-29T01:05:02.361Z,15.80
2023-03-29T01:06:02.417Z,15.82
2023-03-29T01:07:02.463Z,15.80
2023-03-29T01:08:02.483Z,15.82
2023-03-29T01:09:02.528Z,15.82
2023-03-29T01:10:02.589Z,15.81
2023-03-29T01:11:02.872Z,15.80
2023-03-29T01:12:02.675Z,15.82
2023-03-29T01:13:02.713Z,15.80
2023-03-29T01:14:02.762Z,15.75
2023-03-29T01:15:02.800Z,15.77
2023-03-29T01:16:02.860Z,15.72
2023-03-29T01:17:02.882Z,15.69
2023-03-29T01:18:03.033Z,15.75
2023-03-29T01:19:02.990Z,15.73
2023-03-29T01:20:03.058Z,15.72
2023-03-29T01:21:03.270Z,15.77
2023-03-29T01:22:03.141Z,15.81
2023-03-29T01:23:03.158Z,15.83
2023-03-29T01:24:03.198Z,15.84
2023-03-29T01:25:03.194Z,15.86
2023-03-29T01:26:03.220Z,15.86
2023-03-29T01:27:03.260Z,15.83
2023-03-29T01:28:03.311Z,15.83
2023-03-29T01:29:03.299Z,15.84
2023-03-29T01:30:03.313Z,15.84
2023-03-29T01:31:03.536Z,15.88
2023-03-29T01:32:03.531Z,15.88
2023-03-29T01:33:03.505Z,15.84
2023-03-29T01:34:03.467Z,15.82
2023-03-29T01:35:03.495Z,15.88
2023-03-29T01:36:03.560Z,15.91
2023-03-29T01:37:03.568Z,15.92
2023-03-29T01:38:03.612Z,15.94
2023-03-29T01:39:03.666Z,15.91
2023-03-29T01:40:03.701Z,15.92
2023-03-29T01:41:03.993Z,15.94
2023-03-29T01:42:03.792Z,15.95
2023-03-29T01:43:03.840Z,15.95
2023-03-29T01:44:03.863Z,15.97
2023-03-29T01:45:03.938Z,15.94
2023-03-29T01:46:03.997Z,16.02
2023-03-29T01:47:04.026Z,16.00
2023-03-29T01:48:04.100Z,16.02
2023-03-29T01:49:04.092Z,16.05
2023-03-29T01:50:04.114Z,16.03
2023-03-29T01:51:04.460Z,16.08
2023-03-29T01:52:04.193Z,16.13
2023-03-29T01:53:04.208Z,16.15
2023-03-29T01:54:04.261Z,16.11
2023-03-29T01:55:04.272Z,16.11
2023-03-29T01:56:04.279Z,16.15
2023-03-29T01:57:04.368Z,16.16
2023-03-29T01:58:04.338Z,16.15
2023-03-29T01:59:04.420Z,16.19
2023-03-29T02:00:04.389Z,16.19
2023-03-29T02:01:04.664Z,16.22
2023-03-29T02:02:04.464Z,16.22
2023-03-29T02:03:04.528Z,16.26
2023-03-29T02:04:04.498Z,16.29
2023-03-29T02:05:04.558Z,16.27
2023-03-29T02:06:04.604Z,16.24
2023-03-29T02:07:04.661Z,16.32
2023-03-29T02:08:04.691Z,16.32
2023-03-29T02:09:04.710Z,16.31
2023-03-29T02:10:04.801Z,16.35
2023-03-29T02:11:04.947Z,16.37
2023-03-29T02:12:04.811Z,16.38
2023-03-29T02:13:04.844Z,16.38
2023-03-29T02:14:04.821Z,16.37
2023-03-29T02:15:04.893Z,16.40
2023-03-29T02:16:04.949Z,16.42
2023-03-29T02:17:04.955Z,16.48
2023-03-29T02:18:05.060Z,16.45
2023-03-29T02:19:05.069Z,16.51
2023-03-29T02:20:05.127Z,16.43
2023-03-29T02:21:05.145Z,16.51
2023-03-29T02:22:05.197Z,16.45
2023-03-29T02:23:05.243Z,16.48
2023-03-29T02:24:05.295Z,16.54
2023-03-29T02:25:05.355Z,16.51
2023-03-29T02:26:05.394Z,16.60
2023-03-29T02:27:05.433Z,16.53
2023-03-29T02:28:05.461Z,16.54
2023-03-29T02:29:05.520Z,16.56
2023-03-29T02:30:05.591Z,16.60
2023-03-29T02:31:05.755Z,16.60
2023-03-29T02:32:05.695Z,16.62
2023-03-29T02:33:05.852Z,16.64
2023-03-29T02:34:05.750Z,16.65
2023-03-29T02:35:05.909Z,16.70
2023-03-29T02:36:05.862Z,16.65
2023-03-29T02:37:05.903Z,16.68
2023-03-29T02:38:05.964Z,16.65
2023-03-29T02:39:06.006Z,16.69
2023-03-29T02:40:06.151Z,16.69
2023-03-29T02:41:06.091Z,16.70
2023-03-29T02:42:06.154Z,16.75
2023-03-29T02:43:06.213Z,16.73
2023-03-29T02:44:06.242Z,16.75
2023-03-29T02:45:06.270Z,16.72
2023-03-29T02:46:06.340Z,16.75
2023-03-29T02:47:06.339Z,16.81
2023-03-29T02:48:06.483Z,16.81
2023-03-29T02:49:06.407Z,16.76
2023-03-29T02:50:06.442Z,16.80
2023-03-29T02:51:06.456Z,16.78
2023-03-29T02:52:06.458Z,16.80
2023-03-29T02:53:06.508Z,16.76
2023-03-29T02:54:06.551Z,16.80
2023-03-29T02:55:06.569Z,16.80
2023-03-29T02:56:06.655Z,16.81
2023-03-29T02:57:06.723Z,16.84
2023-03-29T02:58:06.696Z,16.84
2023-03-29T02:59:06.728Z,16.86
2023-03-29T03:00:06.743Z,16.84
2023-03-29T03:01:06.803Z,16.86
2023-03-29T03:02:06.890Z,16.84
2023-03-29T03:03:06.974Z,16.92
2023-03-29T03:04:06.988Z,16.87
2023-03-29T03:05:06.988Z,16.89
2023-03-29T03:06:07.002Z,16.91
2023-03-29T03:07:07.003Z,16.87
2023-03-29T03:08:07.058Z,16.89
2023-03-29T03:09:07.072Z,16.89
2023-03-29T03:10:07.137Z,16.89
2023-03-29T03:11:07.201Z,16.94
2023-03-29T03:12:07.222Z,16.92
2023-03-29T03:13:07.311Z,16.96
2023-03-29T03:14:07.347Z,16.96
2023-03-29T03:15:07.396Z,16.86
2023-03-29T03:16:07.474Z,16.91
2023-03-29T03:17:07.478Z,16.92
2023-03-29T03:18:07.619Z,16.92
2023-03-29T03:19:07.577Z,16.97
2023-03-29T03:20:07.625Z,16.92
2023-03-29T03:21:07.666Z,16.97
2023-03-29T03:22:07.807Z,16.92
2023-03-29T03:23:07.749Z,16.94
2023-03-29T03:24:07.800Z,16.97
2023-03-29T03:25:07.837Z,16.98
2023-03-29T03:26:07.862Z,16.92
2023-03-29T03:27:07.898Z,16.94
2023-03-29T03:28:07.879Z,16.97
2023-03-29T03:29:07.925Z,16.98
2023-03-29T03:30:08.006Z,16.96
2023-03-29T03:31:08.021Z,16.97
2023-03-29T03:32:08.073Z,16.98
2023-03-29T03:33:08.013Z,17.00
2023-03-29T03:34:08.068Z,16.97
2023-03-29T03:35:08.120Z,16.98
2023-03-29T03:36:08.228Z,16.98
2023-03-29T03:37:08.230Z,16.98
2023-03-29T03:38:08.259Z,16.98
2023-03-29T03:39:08.291Z,17.00
2023-03-29T03:40:08.297Z,16.98
2023-03-29T03:41:08.308Z,17.02
2023-03-29T03:42:08.635Z,17.03
2023-03-29T03:43:08.348Z,17.03
2023-03-29T03:44:08.357Z,17.03
2023-03-29T03:45:08.392Z,17.05
2023-03-29T03:46:08.452Z,17.08
2023-03-29T03:47:08.427Z,17.05
2023-03-29T03:48:08.477Z,17.02
2023-03-29T03:49:08.477Z,17.07
2023-03-29T03:50:08.522Z,17.05
2023-03-29T03:51:08.577Z,17.06
2023-03-29T03:52:08.601Z,17.05
2023-03-29T03:53:08.724Z,17.05
2023-03-29T03:54:08.721Z,17.03
2023-03-29T03:55:08.746Z,17.06
2023-03-29T03:56:08.823Z,17.05
2023-03-29T03:57:08.922Z,17.08
2023-03-29T03:58:08.893Z,17.11
2023-03-29T03:59:08.941Z,17.14
2023-03-29T04:00:08.991Z,17.11
2023-03-29T04:01:09.007Z,17.07
2023-03-29T04:02:09.073Z,17.10
2023-03-29T04:03:09.228Z,17.06
2023-03-29T04:04:09.152Z,17.13
2023-03-29T04:05:09.124Z,17.10
2023-03-29T04:06:09.115Z,17.11
2023-03-29T04:07:09.171Z,17.06
2023-03-29T04:08:09.206Z,17.13
2023-03-29T04:09:09.307Z,17.11
2023-03-29T04:10:09.317Z,17.11
2023-03-29T04:11:09.354Z,17.16
2023-03-29T04:12:09.374Z,17.13
2023-03-29T04:13:09.417Z,17.13
2023-03-29T04:14:09.488Z,17.16
2023-03-29T04:15:09.512Z,17.16
2023-03-29T04:16:09.578Z,17.13
2023-03-29T04:17:09.583Z,17.08
2023-03-29T04:18:09.705Z,17.14
2023-03-29T04:19:09.670Z,17.16
2023-03-29T04:20:09.695Z,17.16
2023-03-29T04:21:09.737Z,17.19
2023-03-29T04:22:09.789Z,17.16
2023-03-29T04:23:09.850Z,17.16
2023-03-29T04:24:09.888Z,17.14
2023-03-29T04:25:09.953Z,17.10
2023-03-29T04:26:09.985Z,17.13
2023-03-29T04:27:10.042Z,17.16
2023-03-29T04:28:10.089Z,17.18
2023-03-29T04:29:10.137Z,17.19
2023-03-29T04:30:10.201Z,17.18
2023-03-29T04:31:10.272Z,17.16
2023-03-29T04:32:10.264Z,17.19
2023-03-29T04:33:10.398Z,17.18
2023-03-29T04:34:10.354Z,17.18
2023-03-29T04:35:10.402Z,17.19
2023-03-29T04:36:10.427Z,17.18
2023-03-29T04:37:10.470Z,17.21
2023-03-29T04:38:10.429Z,17.14
2023-03-29T04:39:10.454Z,17.18
2023-03-29T04:40:10.480Z,17.18
2023-03-29T04:41:10.526Z,17.19
2023-03-29T04:42:10.582Z,17.22
2023-03-29T04:43:10.624Z,17.18
2023-03-29T04:44:10.692Z,17.22
2023-03-29T04:45:10.773Z,17.16
2023-03-29T04:46:10.798Z,17.19
2023-03-29T04:47:10.819Z,17.18
2023-03-29T04:48:10.898Z,17.22
2023-03-29T04:49:10.882Z,17.24
2023-03-29T04:50:10.968Z,17.21
2023-03-29T04:51:10.911Z,17.19
2023-03-29T04:52:10.951Z,17.25
2023-03-29T04:53:11.008Z,17.16
2023-03-29T04:54:11.065Z,17.24
2023-03-29T04:55:11.076Z,17.19
2023-03-29T04:56:11.124Z,17.27
2023-03-29T04:57:11.204Z,17.19
2023-03-29T04:58:11.196Z,17.25
2023-03-29T04:59:11.240Z,17.27
2023-03-29T05:00:11.258Z,17.30
2023-03-29T05:01:11.332Z,17.27
2023-03-29T05:02:11.403Z,17.30
2023-03-29T05:03:11.551Z,17.27
2023-03-29T05:04:12.750Z,17.30
2023-03-29T05:05:11.525Z,17.24
2023-03-29T05:06:11.563Z,17.29
2023-03-29T05:07:11.624Z,17.29
2023-03-29T05:08:11.679Z,17.27
2023-03-29T05:09:11.732Z,17.25
2023-03-29T05:10:11.759Z,17.30
2023-03-29T05:11:11.835Z,17.32
2023-03-29T05:12:11.859Z,17.32
2023-03-29T05:13:11.929Z,17.30
2023-03-29T05:14:11.969Z,17.35
2023-03-29T05:15:12.011Z,17.38
2023-03-29T05:16:12.112Z,17.37
2023-03-29T05:17:12.117Z,17.33
2023-03-29T05:18:12.196Z,17.30
2023-03-29T05:19:12.224Z,17.35
2023-03-29T05:20:12.273Z,17.37
2023-03-29T05:21:12.326Z,17.37
2023-03-29T05:22:12.381Z,17.40
2023-03-29T05:23:12.428Z,17.38
2023-03-29T05:24:12.438Z,17.37
2023-03-29T05:25:12.492Z,17.39
2023-03-29T05:26:12.473Z,17.46
2023-03-29T05:27:12.484Z,17.84
2023-03-29T05:28:12.540Z,18.11
2023-03-29T05:29:12.582Z,18.27
2023-03-29T05:30:12.895Z,18.40
2023-03-29T05:31:15.411Z,18.65
2023-03-29T05:32:12.660Z,19.35
2023-03-29T05:33:12.666Z,19.53
2023-03-29T05:34:12.623Z,19.87
2023-03-29T05:35:12.602Z,19.87
2023-03-29T05:36:12.636Z,19.81
2023-03-29T05:37:12.593Z,20.61
2023-03-29T05:38:12.572Z,20.40
2023-03-29T05:39:12.599Z,20.40
2023-03-29T05:40:12.898Z,20.56
2023-03-29T05:41:12.551Z,20.69
2023-03-29T05:42:12.544Z,20.77
2023-03-29T05:43:12.563Z,20.36
2023-03-29T05:44:12.538Z,20.27
2023-03-29T05:45:12.518Z,21.04
2023-03-29T05:46:12.609Z,20.91
2023-03-29T05:47:12.526Z,21.02
2023-03-29T05:48:12.521Z,20.64
2023-03-29T05:49:12.499Z,20.39
2023-03-29T05:50:12.515Z,20.84
2023-03-29T05:51:12.491Z,20.43
2023-03-29T05:52:12.481Z,20.11
2023-03-29T05:53:12.461Z,19.79
2023-03-29T05:54:12.462Z,19.78
2023-03-29T05:55:12.487Z,19.52
2023-03-29T05:56:12.453Z,19.62
2023-03-29T05:57:12.481Z,19.56
2023-03-29T05:58:12.453Z,19.48
2023-03-29T05:59:12.421Z,19.59
2023-03-29T06:00:12.420Z,19.21
2023-03-29T06:01:12.431Z,19.39
2023-03-29T06:02:12.529Z,19.37
2023-03-29T06:03:19.909Z,19.50
2023-03-29T06:04:13.452Z,19.58
2023-03-29T06:05:12.393Z,19.66
2023-03-29T06:06:12.390Z,19.72
2023-03-29T06:07:12.393Z,19.25
2023-03-29T06:08:12.375Z,19.66
2023-03-29T06:09:12.372Z,20.10
2023-03-29T06:10:12.354Z,19.80
2023-03-29T06:11:12.359Z,19.48
2023-03-29T06:12:12.350Z,19.53
2023-03-29T06:13:12.332Z,18.99
2023-03-29T06:14:12.328Z,19.06
2023-03-29T06:15:12.328Z,19.29
2023-03-29T06:16:12.312Z,19.04
2023-03-29T06:17:12.373Z,18.93
2023-03-29T06:18:12.393Z,19.04
2023-03-29T06:19:12.422Z,19.45
2023-03-29T06:20:12.440Z,19.63
2023-03-29T06:21:12.639Z,19.67
2023-03-29T06:22:14.835Z,19.43
2023-03-29T06:23:12.600Z,19.26
2023-03-29T06:24:12.654Z,19.57
2023-03-29T06:25:12.698Z,19.09
2023-03-29T06:26:12.728Z,19.26
2023-03-29T06:27:12.745Z,19.35
2023-03-29T06:28:12.832Z,19.11
2023-03-29T06:29:12.847Z,19.29
2023-03-29T06:30:12.865Z,19.38
2023-03-29T06:31:13.002Z,19.64
2023-03-29T06:32:13.402Z,20.06
2023-03-29T06:33:13.001Z,19.89
2023-03-29T06:34:13.029Z,20.36
2023-03-29T06:35:13.019Z,20.74
2023-03-29T06:36:13.062Z,20.63
2023-03-29T06:37:13.083Z,20.66
2023-03-29T06:38:13.166Z,20.57
2023-03-29T06:39:13.184Z,20.74
2023-03-29T06:40:13.237Z,20.89
2023-03-29T06:41:13.444Z,20.58
2023-03-29T06:42:21.121Z,20.62
2023-03-29T06:43:14.318Z,20.38
2023-03-29T06:44:13.503Z,20.56
2023-03-29T06:45:13.278Z,20.64
2023-03-29T06:46:13.471Z,20.26
2023-03-29T06:47:13.409Z,20.44
2023-03-29T06:48:13.286Z,20.47
2023-03-29T06:49:13.251Z,20.57
2023-03-29T06:50:13.247Z,20.39
2023-03-29T06:51:13.221Z,20.01
2023-03-29T06:52:13.422Z,20.11
2023-03-29T06:53:13.259Z,20.56
2023-03-29T06:54:13.261Z,20.49
2023-03-29T06:55:13.271Z,20.19
2023-03-29T06:56:13.312Z,20.24
2023-03-29T06:57:13.497Z,20.23
2023-03-29T06:58:13.407Z,19.59
2023-03-29T06:59:13.423Z,20.04
2023-03-29T07:00:13.437Z,20.31
2023-03-29T07:01:13.446Z,20.23
2023-03-29T07:02:13.592Z,20.09
2023-03-29T07:03:13.551Z,20.01
2023-03-29T07:04:13.637Z,19.99
2023-03-29T07:05:13.567Z,20.02
2023-03-29T07:06:13.614Z,20.06
2023-03-29T07:07:14.179Z,20.20
2023-03-29T07:08:13.957Z,20.18
2023-03-29T07:09:13.766Z,19.79
2023-03-29T07:10:13.785Z,19.82
2023-03-29T07:11:13.812Z,19.90
2023-03-29T07:12:14.045Z,19.96
2023-03-29T07:13:13.905Z,19.87
2023-03-29T07:14:13.876Z,19.82
2023-03-29T07:15:13.888Z,19.44
2023-03-29T07:16:13.998Z,19.35
2023-03-29T07:17:13.921Z,19.34
2023-03-29T07:18:13.978Z,19.58
2023-03-29T07:19:14.030Z,19.33
2023-03-29T07:20:14.072Z,19.32
2023-03-29T07:21:14.116Z,19.94
2023-03-29T07:22:14.153Z,19.21
2023-03-29T07:23:14.162Z,19.23
2023-03-29T07:24:14.185Z,19.32
2023-03-29T07:25:14.231Z,19.67
2023-03-29T07:26:14.237Z,19.95
2023-03-29T07:27:15.445Z,20.14
2023-03-29T07:28:14.453Z,20.35
2023-03-29T07:29:14.247Z,20.53
2023-03-29T07:30:14.200Z,21.94
2023-03-29T07:31:14.196Z,21.27
2023-03-29T07:32:14.197Z,20.54
2023-03-29T07:33:14.627Z,20.46
2023-03-29T07:34:14.170Z,20.31
2023-03-29T07:35:14.180Z,20.15
2023-03-29T07:36:14.242Z,20.05
2023-03-29T07:37:14.440Z,20.14
2023-03-29T07:38:14.152Z,20.49
2023-03-29T07:39:14.184Z,20.72
2023-03-29T07:40:14.198Z,21.22
2023-03-29T07:41:14.212Z,20.93
2023-03-29T07:42:14.237Z,21.23
2023-03-29T07:43:14.255Z,21.09
2023-03-29T07:44:14.289Z,21.25
2023-03-29T07:45:14.298Z,21.25
2023-03-29T07:46:14.442Z,21.12
2023-03-29T07:47:14.361Z,21.17
2023-03-29T07:48:14.418Z,21.25
2023-03-29T07:49:14.434Z,21.25
2023-03-29T07:50:14.436Z,21.06
2023-03-29T07:51:14.426Z,21.15
2023-03-29T07:52:14.457Z,21.11
2023-03-29T07:53:14.468Z,21.10
2023-03-29T07:54:14.519Z,21.13
2023-03-29T07:55:14.928Z,21.12
2023-03-29T07:56:14.612Z,21.35
2023-03-29T07:57:14.706Z,21.46
2023-03-29T07:58:14.658Z,21.46
2023-03-29T07:59:14.690Z,21.53
2023-03-29T08:00:15.026Z,21.60
2023-03-29T08:01:17.107Z,21.59
2023-03-29T08:02:14.752Z,21.58
2023-03-29T08:03:14.875Z,21.62
2023-03-29T08:04:14.828Z,21.64
2023-03-29T08:05:17.547Z,21.71
2023-03-29T08:06:15.736Z,21.77
2023-03-29T08:07:16.446Z,21.96
2023-03-29T08:08:14.731Z,22.10
2023-03-29T08:09:14.695Z,22.02
2023-03-29T08:10:14.703Z,22.05
2023-03-29T08:11:14.704Z,22.01
2023-03-29T08:12:14.713Z,21.94
2023-03-29T08:13:14.679Z,22.00
2023-03-29T08:14:14.688Z,22.03
2023-03-29T08:15:14.957Z,22.09
2023-03-29T08:16:14.737Z,22.26
2023-03-29T08:17:14.663Z,22.21
2023-03-29T08:18:14.717Z,22.27
2023-03-29T08:19:14.659Z,22.22
2023-03-29T08:20:14.945Z,22.16
2023-03-29T08:21:14.641Z,23.55
2023-03-29T08:22:14.641Z,23.10
2023-03-29T08:23:14.646Z,23.04
2023-03-29T08:24:14.614Z,22.78
2023-03-29T08:25:14.962Z,22.69
2023-03-29T08:26:14.599Z,22.92
2023-03-29T08:27:14.590Z,22.72
2023-03-29T08:28:14.941Z,22.62
2023-03-29T08:29:14.588Z,22.36
2023-03-29T08:30:14.907Z,22.67
2023-03-29T08:31:14.616Z,22.31
2023-03-29T08:32:14.603Z,22.10
2023-03-29T08:33:14.623Z,22.52
2023-03-29T08:34:14.557Z,23.38
2023-03-29T08:35:14.559Z,22.76
2023-03-29T08:36:14.580Z,22.74
2023-03-29T08:37:14.519Z,22.39
2023-03-29T08:38:15.022Z,22.04
2023-03-29T08:39:14.522Z,21.51
2023-03-29T08:40:14.501Z,20.68
2023-03-29T08:41:14.525Z,21.22
2023-03-29T08:42:14.520Z,20.94
2023-03-29T08:43:14.949Z,20.32
2023-03-29T08:44:14.476Z,20.10
2023-03-29T08:45:14.466Z,19.97
2023-03-29T08:46:14.489Z,19.88
2023-03-29T08:47:14.460Z,19.97
2023-03-29T08:48:14.430Z,20.04
2023-03-29T08:49:14.448Z,20.07
2023-03-29T08:50:14.449Z,20.13
2023-03-29T08:51:14.431Z,20.13
2023-03-29T08:52:14.434Z,20.21
2023-03-29T08:53:14.419Z,20.26
2023-03-29T08:54:14.433Z,20.26
2023-03-29T08:55:14.454Z,20.29
2023-03-29T08:56:14.531Z,20.31
2023-03-29T08:57:14.586Z,20.32
2023-03-29T08:58:14.597Z,20.37
2023-03-29T08:59:14.649Z,20.35
2023-03-29T09:00:14.650Z,20.30
2023-03-29T09:01:14.696Z,20.35
2023-03-29T09:02:14.896Z,20.32
2023-03-29T09:03:14.874Z,20.32
2023-03-29T09:04:14.817Z,20.35
2023-03-29T09:05:14.835Z,20.30
2023-03-29T09:06:14.884Z,20.30
2023-03-29T09:07:14.919Z,20.23
2023-03-29T09:08:14.965Z,20.30
2023-03-29T09:09:14.978Z,20.30
2023-03-29T09:10:15.001Z,20.28
2023-03-29T09:11:15.000Z,20.28
2023-03-29T09:12:15.048Z,20.18
2023-03-29T09:13:15.171Z,20.12
2023-03-29T09:14:15.156Z,20.04
2023-03-29T09:15:15.183Z,19.97
2023-03-29T09:16:15.288Z,20.12
2023-03-29T09:17:15.272Z,20.14
2023-03-29T09:18:15.515Z,20.07
2023-03-29T09:19:15.376Z,19.99
2023-03-29T09:20:15.422Z,20.00
2023-03-29T09:21:15.449Z,19.97
2023-03-29T09:22:15.488Z,19.91
2023-03-29T09:23:15.988Z,19.96
2023-03-29T09:24:15.589Z,19.91
2023-03-29T09:25:15.541Z,19.86
2023-03-29T09:26:15.602Z,20.65
2023-03-29T09:27:15.627Z,21.14
2023-03-29T09:28:15.989Z,21.35
2023-03-29T09:29:15.698Z,21.53
2023-03-29T09:30:15.804Z,21.08
2023-03-29T09:31:15.820Z,21.59
2023-03-29T09:32:15.849Z,22.59
2023-03-29T09:33:16.005Z,21.76
2023-03-29T09:34:16.104Z,22.14
2023-03-29T09:35:15.956Z,21.78
2023-03-29T09:36:16.056Z,22.46
2023-03-29T09:37:16.018Z,22.46
2023-03-29T09:38:16.037Z,22.88
2023-03-29T09:39:16.079Z,22.63
2023-03-29T09:40:16.067Z,22.59
2023-03-29T09:41:16.097Z,22.51
2023-03-29T09:42:16.121Z,22.53
2023-03-29T09:43:16.187Z,22.94
2023-03-29T09:44:29.817Z,23.00
2023-03-29T09:45:17.180Z,22.72
2023-03-29T09:46:16.383Z,22.89
2023-03-29T09:47:16.176Z,22.66
2023-03-29T09:48:16.483Z,22.81
2023-03-29T09:49:17.418Z,22.30
2023-03-29T09:50:27.739Z,22.75
2023-03-29T09:51:17.142Z,23.10
2023-03-29T09:52:16.136Z,22.80
2023-03-29T09:53:16.148Z,22.50
2023-03-29T09:54:16.162Z,23.01
2023-03-29T09:55:16.135Z,22.71
2023-03-29T09:56:16.097Z,22.97
2023-03-29T09:57:16.180Z,22.97
2023-03-29T09:58:16.125Z,23.02
2023-03-29T09:59:16.481Z,22.75
2023-03-29T10:00:16.122Z,23.00
2023-03-29T10:01:16.109Z,22.77
2023-03-29T10:02:16.066Z,22.71
2023-03-29T10:03:16.053Z,22.72
2023-03-29T10:04:16.553Z,22.62
2023-03-29T10:05:16.115Z,22.68
2023-03-29T10:06:16.189Z,21.19
2023-03-29T10:07:16.223Z,20.55
2023-03-29T10:08:19.027Z,21.09
2023-03-29T10:09:16.501Z,20.88
2023-03-29T10:10:16.276Z,21.31
2023-03-29T10:11:16.205Z,21.45
2023-03-29T10:12:16.203Z,22.03
2023-03-29T10:13:16.201Z,21.65
2023-03-29T10:14:16.204Z,21.68
2023-03-29T10:15:26.712Z,21.76
2023-03-29T10:16:17.256Z,21.72
2023-03-29T10:17:16.174Z,21.71
2023-03-29T10:18:16.165Z,21.76
2023-03-29T10:19:16.489Z,21.78
2023-03-29T10:20:16.165Z,22.79
2023-03-29T10:21:16.143Z,22.36
2023-03-29T10:22:16.120Z,22.73
2023-03-29T10:23:16.157Z,21.87
2023-03-29T10:24:16.143Z,21.69
2023-03-29T10:25:16.119Z,21.24
2023-03-29T10:26:16.118Z,21.25
2023-03-29T10:27:16.087Z,21.25
2023-03-29T10:28:16.134Z,21.49
2023-03-29T10:29:16.106Z,21.39
2023-03-29T10:30:16.127Z,21.24
2023-03-29T10:31:17.861Z,21.44
2023-03-29T10:32:16.163Z,21.40
2023-03-29T10:33:16.168Z,21.50
2023-03-29T10:34:16.174Z,21.17
2023-03-29T10:35:16.210Z,21.68
2023-03-29T10:36:16.297Z,21.79
2023-03-29T10:37:16.275Z,21.92
2023-03-29T10:38:16.305Z,21.98
2023-03-29T10:39:16.352Z,22.15
2023-03-29T10:40:16.522Z,22.22
2023-03-29T10:41:16.436Z,22.21
2023-03-29T10:42:16.451Z,22.18
2023-03-29T10:43:16.469Z,22.08
2023-03-29T10:44:16.502Z,22.13
2023-03-29T10:45:16.552Z,22.13
2023-03-29T10:46:16.728Z,22.11
2023-03-29T10:47:16.649Z,22.06
2023-03-29T10:48:16.653Z,22.14
2023-03-29T10:49:16.708Z,22.07
2023-03-29T10:50:16.743Z,22.21
2023-03-29T10:51:16.747Z,22.40
2023-03-29T10:52:16.781Z,22.52
2023-03-29T10:53:16.832Z,22.53
2023-03-29T10:54:16.847Z,22.48
2023-03-29T10:55:16.927Z,22.59
2023-03-29T10:56:16.909Z,22.51
2023-03-29T10:57:16.994Z,22.63
2023-03-29T10:58:17.025Z,22.74
2023-03-29T10:59:17.020Z,22.77
2023-03-29T11:00:17.526Z,22.97
2023-03-29T11:01:18.054Z,22.95
2023-03-29T11:02:17.107Z,22.94
2023-03-29T11:03:19.515Z,23.10
2023-03-29T11:04:17.075Z,23.13
2023-03-29T11:05:17.057Z,23.06
2023-03-29T11:06:17.028Z,23.07
2023-03-29T11:07:17.026Z,23.26
2023-03-29T11:08:17.024Z,23.23
2023-03-29T11:09:17.026Z,23.22
2023-03-29T11:10:17.013Z,23.32
2023-03-29T11:11:17.024Z,23.12
2023-03-29T11:12:17.014Z,22.90
2023-03-29T11:13:16.989Z,22.73
2023-03-29T11:14:16.961Z,22.60
2023-03-29T11:15:17.027Z,22.50
2023-03-29T11:16:17.029Z,22.45
2023-03-29T11:17:16.984Z,22.29
2023-03-29T11:18:16.944Z,22.37
2023-03-29T11:19:16.946Z,22.26
2023-03-29T11:20:16.968Z,22.64
2023-03-29T11:21:16.913Z,23.58
2023-03-29T11:22:16.896Z,27.66
2023-03-29T11:23:16.902Z,27.41
2023-03-29T11:24:16.904Z,33.30
2023-03-29T11:25:16.900Z,33.53
2023-03-29T11:26:16.894Z,33.21
2023-03-29T11:27:16.873Z,32.19
2023-03-29T11:28:16.877Z,31.74
2023-03-29T11:29:16.878Z,32.54
2023-03-29T11:30:16.866Z,31.60
2023-03-29T11:31:16.878Z,30.65
2023-03-29T11:32:16.830Z,29.37
2023-03-29T11:33:16.856Z,28.66
2023-03-29T11:34:16.845Z,27.94
2023-03-29T11:35:16.815Z,27.46
2023-03-29T11:36:16.873Z,26.87
2023-03-29T11:37:16.812Z,26.42
2023-03-29T11:38:16.780Z,26.09
2023-03-29T11:39:16.798Z,25.84
2023-03-29T11:40:16.789Z,25.74
2023-03-29T11:41:16.778Z,25.27
2023-03-29T11:42:16.828Z,25.00
2023-03-29T11:43:16.836Z,24.79
2023-03-29T11:44:16.919Z,24.71
2023-03-29T11:45:16.927Z,24.63
2023-03-29T11:46:16.984Z,24.71
2023-03-29T11:47:16.987Z,24.46
2023-03-29T11:48:17.015Z,24.34
2023-03-29T11:49:17.065Z,24.13
2023-03-29T11:50:17.116Z,24.22
2023-03-29T11:51:17.135Z,23.94
2023-03-29T11:52:17.171Z,24.03
2023-03-29T11:53:17.205Z,23.73
2023-03-29T11:54:17.217Z,23.68
2023-03-29T11:55:17.244Z,23.66
2023-03-29T11:56:17.552Z,23.62
2023-03-29T11:57:17.626Z,23.57
2023-03-29T11:58:17.389Z,23.43
2023-03-29T11:59:17.436Z,23.37
2023-03-29T12:00:17.485Z,23.22
2023-03-29T12:01:17.554Z,23.24
2023-03-29T12:02:18.079Z,23.25
2023-03-29T12:03:18.103Z,23.24
2023-03-29T12:04:17.726Z,23.19
2023-03-29T12:05:17.658Z,23.03
2023-03-29T12:06:17.681Z,22.88
2023-03-29T12:07:17.748Z,22.83
2023-03-29T12:08:18.050Z,22.99
2023-03-29T12:09:17.839Z,22.94
2023-03-29T12:10:17.859Z,22.91
2023-03-29T12:11:17.875Z,22.72
2023-03-29T12:12:17.993Z,22.75
2023-03-29T12:13:18.045Z,22.74
2023-03-29T12:14:17.924Z,22.76
2023-03-29T12:15:17.977Z,22.69
2023-03-29T12:16:18.033Z,22.67
2023-03-29T12:17:18.074Z,22.62
2023-03-29T12:18:18.119Z,22.61
2023-03-29T12:19:18.154Z,22.66
2023-03-29T12:20:18.186Z,22.56
2023-03-29T12:21:18.224Z,22.61
2023-03-29T12:22:18.246Z,22.59
2023-03-29T12:23:18.240Z,22.64
2023-03-29T12:24:18.279Z,22.48
2023-03-29T12:25:20.212Z,22.59
2023-03-29T12:26:18.255Z,22.58
2023-03-29T12:27:18.272Z,22.51
2023-03-29T12:28:18.253Z,22.48
2023-03-29T12:29:18.232Z,22.45
2023-03-29T12:30:18.279Z,22.47
2023-03-29T12:31:18.225Z,22.40
2023-03-29T12:32:18.238Z,22.43
2023-03-29T12:33:18.277Z,22.31
2023-03-29T12:34:18.208Z,22.36
2023-03-29T12:35:18.239Z,22.29
2023-03-29T12:36:18.247Z,22.34
2023-03-29T12:37:18.188Z,22.33
2023-03-29T12:38:18.168Z,22.29
2023-03-29T12:39:18.177Z,22.25
2023-03-29T12:40:18.172Z,22.25
2023-03-29T12:41:18.183Z,22.25
2023-03-29T12:42:18.146Z,22.23
2023-03-29T12:43:18.149Z,22.20
2023-03-29T12:44:18.125Z,22.20
2023-03-29T12:45:18.136Z,22.21
2023-03-29T12:46:18.182Z,22.25
2023-03-29T12:47:18.137Z,22.31
2023-03-29T12:48:18.126Z,22.27
2023-03-29T12:49:20.544Z,22.25
2023-03-29T12:50:18.076Z,22.18
2023-03-29T12:51:18.084Z,22.23
2023-03-29T12:52:18.074Z,22.20